sensor_id;sensor_type;location;lat;lon;timestamp;pressure;altitude;pressure_sealevel;temperature;humidity
24486;BME280;13449;49.374;8.584;2023-04-26T00:01:53;100735.84;;;4.73;100.00
24486;BME280;13449;49.374;8.584;2023-04-26T00:04:20;100737.50;;;4.74;100.00
24486;BME280;13449;49.374;8.584;2023-04-26T00:06:47;100730.09;;;4.79;100.00
24486;BME280;13449;49.374;8.584;2023-04-26T00:09:14;100734.63;;;4.77;100.00
24486;BME280;13449;49.374;8.584;2023-04-26T00:11:41;100729.75;;;4.63;100.00
24486;BME280;13449;49.374;8.584;2023-04-26T00:14:07;100733.66;;;4.68;100.00
24486;BME280;13449;49.374;8.584;2023-04-26T00:16:34;100737.06;;;4.69;100.00
24486;BME280;13449;49.374;8.584;2023-04-26T00:19:01;100734.47;;;4.69;100.00
24486;BME280;13449;49.374;8.584;2023-04-26T00:21:27;100735.94;;;4.62;100.00
24486;BME280;13449;49.374;8.584;2023-04-26T00:23:57;100733.06;;;4.65;100.00
24486;BME280;13449;49.374;8.584;2023-04-26T00:26:23;100729.66;;;4.74;100.00
24486;BME280;13449;49.374;8.584;2023-04-26T00:28:50;100736.66;;;4.74;100.00
24486;BME280;13449;49.374;8.584;2023-04-26T00:31:17;100739.84;;;4.77;100.00
24486;BME280;13449;49.374;8.584;2023-04-26T00:33:44;100741.88;;;4.74;100.00
24486;BME280;13449;49.374;8.584;2023-04-26T00:36:13;100740.81;;;4.76;100.00
24486;BME280;13449;49.374;8.584;2023-04-26T00:38:40;100739.16;;;4.75;100.00
24486;BME280;13449;49.374;8.584;2023-04-26T00:41:07;100730.22;;;4.68;100.00
24486;BME280;13449;49.374;8.584;2023-04-26T00:43:33;100726.34;;;4.62;100.00
24486;BME280;13449;49.374;8.584;2023-04-26T00:46:02;100725.94;;;4.67;100.00
24486;BME280;13449;49.374;8.584;2023-04-26T00:48:29;100732.38;;;4.63;100.00
24486;BME280;13449;49.374;8.584;2023-04-26T00:50:55;100722.75;;;4.63;100.00
24486;BME280;13449;49.374;8.584;2023-04-26T00:53:22;100734.16;;;4.62;100.00
24486;BME280;13449;49.374;8.584;2023-04-26T00:55:49;100723.31;;;4.67;100.00
24486;BME280;13449;49.374;8.584;2023-04-26T00:58:16;100732.19;;;4.85;100.00
24486;BME280;13449;49.374;8.584;2023-04-26T01:00:46;100739.78;;;4.67;100.00
24486;BME280;13449;49.374;8.584;2023-04-26T01:03:12;100735.81;;;4.63;100.00
24486;BME280;13449;49.374;8.584;2023-04-26T01:05:39;100732.38;;;4.63;100.00
24486;BME280;13449;49.374;8.584;2023-04-26T01:08:06;100732.44;;;4.52;100.00
24486;BME280;13449;49.374;8.584;2023-04-26T01:10:33;100740.94;;;4.44;100.00
24486;BME280;13449;49.374;8.584;2023-04-26T01:13:00;100729.66;;;4.43;100.00
24486;BME280;13449;49.374;8.584;2023-04-26T01:15:28;100731.97;;;4.37;100.00
24486;BME280;13449;49.374;8.584;2023-04-26T01:17:56;100724.81;;;4.29;100.00
24486;BME280;13449;49.374;8.584;2023-04-26T01:20:22;100736.56;;;4.24;100.00
24486;BME280;13449;49.374;8.584;2023-04-26T01:22:49;100736.75;;;4.11;100.00
24486;BME280;13449;49.374;8.584;2023-04-26T01:25:16;100735.38;;;4.07;100.00
24486;BME280;13449;49.374;8.584;2023-04-26T01:27:43;100735.38;;;4.07;100.00
24486;BME280;13449;49.374;8.584;2023-04-26T01:30:10;100731.66;;;4.09;100.00
24486;BME280;13449;49.374;8.584;2023-04-26T01:32:37;100722.91;;;4.10;100.00
24486;BME280;13449;49.374;8.584;2023-04-26T01:35:06;100724.78;;;4.08;100.00
24486;BME280;13449;49.374;8.584;2023-04-26T01:37:35;100726.31;;;4.11;100.00
24486;BME280;13449;49.374;8.584;2023-04-26T01:40:02;100724.59;;;4.21;100.00
24486;BME280;13449;49.374;8.584;2023-04-26T01:42:31;100728.44;;;4.17;100.00
24486;BME280;13449;49.374;8.584;2023-04-26T01:44:58;100723.72;;;4.11;100.00
24486;BME280;13449;49.374;8.584;2023-04-26T01:47:24;100725.19;;;4.04;100.00
24486;BME280;13449;49.374;8.584;2023-04-26T01:49:51;100729.75;;;4.11;100.00
24486;BME280;13449;49.374;8.584;2023-04-26T01:52:18;100736.63;;;4.12;100.00
24486;BME280;13449;49.374;8.584;2023-04-26T01:54:44;100733.25;;;4.01;100.00
24486;BME280;13449;49.374;8.584;2023-04-26T01:57:11;100732.47;;;3.89;100.00
24486;BME280;13449;49.374;8.584;2023-04-26T01:59:39;100727.34;;;3.78;100.00
24486;BME280;13449;49.374;8.584;2023-04-26T02:02:06;100737.88;;;3.76;100.00
24486;BME280;13449;49.374;8.584;2023-04-26T02:04:32;100733.97;;;3.70;100.00
24486;BME280;13449;49.374;8.584;2023-04-26T02:06:59;100730.22;;;3.63;100.00
24486;BME280;13449;49.374;8.584;2023-04-26T02:09:25;100730.72;;;3.57;100.00
24486;BME280;13449;49.374;8.584;2023-04-26T02:11:52;100737.03;;;3.55;100.00
24486;BME280;13449;49.374;8.584;2023-04-26T02:14:18;100739.41;;;3.46;100.00
24486;BME280;13449;49.374;8.584;2023-04-26T02:16:45;100738.56;;;3.46;100.00
24486;BME280;13449;49.374;8.584;2023-04-26T02:19:11;100742.63;;;3.27;100.00
24486;BME280;13449;49.374;8.584;2023-04-26T02:21:56;100740.28;;;3.24;100.00
24486;BME280;13449;49.374;8.584;2023-04-26T02:24:24;100737.56;;;3.26;100.00
24486;BME280;13449;49.374;8.584;2023-04-26T02:26:52;100739.09;;;3.17;100.00
24486;BME280;13449;49.374;8.584;2023-04-26T02:29:19;100739.00;;;3.08;100.00
24486;BME280;13449;49.374;8.584;2023-04-26T02:32:05;100738.81;;;2.99;100.00
24486;BME280;13449;49.374;8.584;2023-04-26T02:34:32;100735.59;;;2.96;100.00
24486;BME280;13449;49.374;8.584;2023-04-26T02:36:59;100737.34;;;2.95;100.00
24486;BME280;13449;49.374;8.584;2023-04-26T02:39:25;100741.59;;;3.08;100.00
24486;BME280;13449;49.374;8.584;2023-04-26T02:41:54;100745.97;;;3.18;100.00
24486;BME280;13449;49.374;8.584;2023-04-26T02:44:21;100749.19;;;3.11;100.00
24486;BME280;13449;49.374;8.584;2023-04-26T02:46:50;100744.44;;;3.04;100.00
24486;BME280;13449;49.374;8.584;2023-04-26T02:49:16;100737.38;;;3.07;100.00
24486;BME280;13449;49.374;8.584;2023-04-26T02:51:43;100731.69;;;3.01;100.00
24486;BME280;13449;49.374;8.584;2023-04-26T02:54:09;100741.41;;;2.99;100.00
24486;BME280;13449;49.374;8.584;2023-04-26T02:56:36;100741.88;;;2.93;100.00
24486;BME280;13449;49.374;8.584;2023-04-26T02:59:03;100739.38;;;2.92;100.00
24486;BME280;13449;49.374;8.584;2023-04-26T03:01:29;100739.75;;;2.87;100.00
24486;BME280;13449;49.374;8.584;2023-04-26T03:03:56;100733.38;;;2.80;100.00
24486;BME280;13449;49.374;8.584;2023-04-26T03:06:23;100745.06;;;2.74;100.00
24486;BME280;13449;49.374;8.584;2023-04-26T03:08:49;100742.47;;;2.74;100.00
24486;BME280;13449;49.374;8.584;2023-04-26T03:11:16;100742.72;;;2.71;100.00
24486;BME280;13449;49.374;8.584;2023-04-26T03:13:42;100742.72;;;2.71;100.00
24486;BME280;13449;49.374;8.584;2023-04-26T03:16:09;100742.84;;;2.70;100.00
24486;BME280;13449;49.374;8.584;2023-04-26T03:18:38;100737.88;;;2.67;100.00
24486;BME280;13449;49.374;8.584;2023-04-26T03:21:07;100740.22;;;2.70;100.00
24486;BME280;13449;49.374;8.584;2023-04-26T03:23:34;100738.09;;;2.64;100.00
24486;BME280;13449;49.374;8.584;2023-04-26T03:26:00;100736.78;;;2.69;100.00
24486;BME280;13449;49.374;8.584;2023-04-26T03:28:27;100743.63;;;2.59;100.00
24486;BME280;13449;49.374;8.584;2023-04-26T03:30:53;100741.75;;;2.61;100.00
24486;BME280;13449;49.374;8.584;2023-04-26T03:33:22;100746.38;;;2.69;100.00
24486;BME280;13449;49.374;8.584;2023-04-26T03:35:49;100753.44;;;2.55;100.00
24486;BME280;13449;49.374;8.584;2023-04-26T03:38:19;100751.69;;;2.56;100.00
24486;BME280;13449;49.374;8.584;2023-04-26T03:40:45;100749.66;;;2.48;100.00
24486;BME280;13449;49.374;8.584;2023-04-26T03:43:11;100750.03;;;2.55;100.00
24486;BME280;13449;49.374;8.584;2023-04-26T03:45:38;100752.28;;;2.48;100.00
24486;BME280;13449;49.374;8.584;2023-04-26T03:48:05;100742.19;;;2.44;100.00
24486;BME280;13449;49.374;8.584;2023-04-26T03:50:31;100751.78;;;2.43;100.00
24486;BME280;13449;49.374;8.584;2023-04-26T03:52:58;100752.38;;;2.47;100.00
24486;BME280;13449;49.374;8.584;2023-04-26T03:55:24;100749.41;;;2.40;100.00
24486;BME280;13449;49.374;8.584;2023-04-26T03:57:53;100738.63;;;2.33;100.00
24486;BME280;13449;49.374;8.584;2023-04-26T04:00:20;100737.34;;;2.28;100.00
24486;BME280;13449;49.374;8.584;2023-04-26T04:02:47;100742.06;;;2.23;100.00
24486;BME280;13449;49.374;8.584;2023-04-26T04:05:13;100727.41;;;2.22;100.00
24486;BME280;13449;49.374;8.584;2023-04-26T04:07:40;100736.13;;;2.21;100.00
24486;BME280;13449;49.374;8.584;2023-04-26T04:10:09;100725.88;;;2.19;100.00
24486;BME280;13449;49.374;8.584;2023-04-26T04:12:36;100728.56;;;2.18;100.00
24486;BME280;13449;49.374;8.584;2023-04-26T04:15:03;100729.88;;;2.12;100.00
24486;BME280;13449;49.374;8.584;2023-04-26T04:17:30;100732.09;;;2.05;100.00
24486;BME280;13449;49.374;8.584;2023-04-26T04:19:56;100733.53;;;2.09;100.00
24486;BME280;13449;49.374;8.584;2023-04-26T04:22:25;100737.78;;;2.10;100.00
24486;BME280;13449;49.374;8.584;2023-04-26T04:24:55;100743.19;;;2.07;100.00
24486;BME280;13449;49.374;8.584;2023-04-26T04:27:25;100750.06;;;2.08;100.00
24486;BME280;13449;49.374;8.584;2023-04-26T04:29:53;100748.28;;;2.09;100.00
24486;BME280;13449;49.374;8.584;2023-04-26T04:32:21;100743.56;;;2.03;100.00
24486;BME280;13449;49.374;8.584;2023-04-26T04:34:49;100748.75;;;2.03;100.00
24486;BME280;13449;49.374;8.584;2023-04-26T04:37:17;100750.78;;;2.10;100.00
24486;BME280;13449;49.374;8.584;2023-04-26T04:39:45;100760.84;;;2.15;100.00
24486;BME280;13449;49.374;8.584;2023-04-26T04:42:12;100763.81;;;2.22;100.00
24486;BME280;13449;49.374;8.584;2023-04-26T04:44:38;100765.00;;;2.29;100.00
24486;BME280;13449;49.374;8.584;2023-04-26T04:47:08;100761.94;;;2.35;100.00
24486;BME280;13449;49.374;8.584;2023-04-26T04:49:34;100769.38;;;2.40;100.00
24486;BME280;13449;49.374;8.584;2023-04-26T04:52:03;100777.09;;;2.41;100.00
24486;BME280;13449;49.374;8.584;2023-04-26T04:54:29;100773.06;;;2.48;100.00
24486;BME280;13449;49.374;8.584;2023-04-26T04:56:56;100772.25;;;2.48;100.00
24486;BME280;13449;49.374;8.584;2023-04-26T04:59:23;100768.22;;;2.55;100.00
24486;BME280;13449;49.374;8.584;2023-04-26T05:01:49;100780.66;;;2.63;100.00
24486;BME280;13449;49.374;8.584;2023-04-26T05:04:16;100779.13;;;2.71;100.00
24486;BME280;13449;49.374;8.584;2023-04-26T05:06:43;100786.22;;;2.92;100.00
24486;BME280;13449;49.374;8.584;2023-04-26T05:09:09;100788.94;;;3.01;100.00
24486;BME280;13449;49.374;8.584;2023-04-26T05:11:36;100792.38;;;3.13;100.00
24486;BME280;13449;49.374;8.584;2023-04-26T05:14:03;100791.63;;;3.34;100.00
24486;BME280;13449;49.374;8.584;2023-04-26T05:16:29;100795.63;;;3.49;100.00
24486;BME280;13449;49.374;8.584;2023-04-26T05:18:58;100799.19;;;3.80;100.00
24486;BME280;13449;49.374;8.584;2023-04-26T05:21:27;100790.88;;;3.97;100.00
24486;BME280;13449;49.374;8.584;2023-04-26T05:23:54;100797.50;;;4.22;100.00
24486;BME280;13449;49.374;8.584;2023-04-26T05:26:20;100790.63;;;4.42;100.00
24486;BME280;13449;49.374;8.584;2023-04-26T05:28:47;100793.41;;;4.51;100.00
24486;BME280;13449;49.374;8.584;2023-04-26T05:31:13;100807.28;;;4.72;100.00
24486;BME280;13449;49.374;8.584;2023-04-26T05:33:40;100800.75;;;4.87;100.00
24486;BME280;13449;49.374;8.584;2023-04-26T05:36:11;100812.06;;;4.98;100.00
24486;BME280;13449;49.374;8.584;2023-04-26T05:38:37;100801.41;;;5.10;100.00
24486;BME280;13449;49.374;8.584;2023-04-26T05:41:04;100796.25;;;5.30;100.00
24486;BME280;13449;49.374;8.584;2023-04-26T05:43:30;100813.84;;;5.37;100.00
24486;BME280;13449;49.374;8.584;2023-04-26T05:45:57;100808.25;;;5.52;100.00
24486;BME280;13449;49.374;8.584;2023-04-26T05:48:27;100807.31;;;5.53;100.00
24486;BME280;13449;49.374;8.584;2023-04-26T05:50:55;100805.94;;;5.88;100.00
24486;BME280;13449;49.374;8.584;2023-04-26T05:53:21;100801.31;;;6.01;100.00
24486;BME280;13449;49.374;8.584;2023-04-26T05:55:50;100800.06;;;6.24;100.00
24486;BME280;13449;49.374;8.584;2023-04-26T05:58:17;100806.50;;;6.40;100.00
24486;BME280;13449;49.374;8.584;2023-04-26T06:00:43;100808.13;;;6.70;100.00
24486;BME280;13449;49.374;8.584;2023-04-26T06:03:10;100817.25;;;6.37;100.00
24486;BME280;13449;49.374;8.584;2023-04-26T06:05:39;100821.28;;;6.21;100.00
24486;BME280;13449;49.374;8.584;2023-04-26T06:08:06;100816.53;;;7.01;100.00
24486;BME280;13449;49.374;8.584;2023-04-26T06:10:34;100817.75;;;7.34;100.00
24486;BME280;13449;49.374;8.584;2023-04-26T06:13:02;100821.16;;;6.89;100.00
24486;BME280;13449;49.374;8.584;2023-04-26T06:15:28;100820.44;;;7.52;100.00
24486;BME280;13449;49.374;8.584;2023-04-26T06:17:56;100819.72;;;7.95;100.00
24486;BME280;13449;49.374;8.584;2023-04-26T06:20:26;100827.59;;;7.50;100.00
24486;BME280;13449;49.374;8.584;2023-04-26T06:22:53;100826.59;;;7.61;100.00
24486;BME280;13449;49.374;8.584;2023-04-26T06:25:19;100826.97;;;7.66;100.00
24486;BME280;13449;49.374;8.584;2023-04-26T06:27:46;100830.03;;;7.34;100.00
24486;BME280;13449;49.374;8.584;2023-04-26T06:30:13;100830.66;;;7.91;100.00
24486;BME280;13449;49.374;8.584;2023-04-26T06:32:40;100830.56;;;7.37;100.00
24486;BME280;13449;49.374;8.584;2023-04-26T06:35:09;100828.50;;;8.66;100.00
24486;BME280;13449;49.374;8.584;2023-04-26T06:37:36;100830.91;;;8.85;100.00
24486;BME280;13449;49.374;8.584;2023-04-26T06:40:03;100827.06;;;8.46;100.00
24486;BME280;13449;49.374;8.584;2023-04-26T06:42:30;100827.59;;;7.50;100.00
24486;BME280;13449;49.374;8.584;2023-04-26T06:44:57;100824.53;;;8.00;100.00
24486;BME280;13449;49.374;8.584;2023-04-26T06:47:23;100826.25;;;8.09;100.00
24486;BME280;13449;49.374;8.584;2023-04-26T06:49:55;100815.34;;;8.92;100.00
24486;BME280;13449;49.374;8.584;2023-04-26T06:52:22;100807.34;;;9.02;100.00
24486;BME280;13449;49.374;8.584;2023-04-26T06:54:48;100806.72;;;8.74;100.00
24486;BME280;13449;49.374;8.584;2023-04-26T06:57:25;100808.09;;;9.20;100.00
24486;BME280;13449;49.374;8.584;2023-04-26T06:59:54;100810.41;;;10.23;100.00
24486;BME280;13449;49.374;8.584;2023-04-26T07:02:21;100808.34;;;9.43;100.00
24486;BME280;13449;49.374;8.584;2023-04-26T07:04:49;100802.84;;;10.20;100.00
24486;BME280;13449;49.374;8.584;2023-04-26T07:07:17;100802.19;;;9.93;100.00
24486;BME280;13449;49.374;8.584;2023-04-26T07:09:46;100797.59;;;9.20;100.00
24486;BME280;13449;49.374;8.584;2023-04-26T07:12:13;100801.63;;;9.06;100.00
24486;BME280;13449;49.374;8.584;2023-04-26T07:14:41;100792.25;;;9.54;100.00
24486;BME280;13449;49.374;8.584;2023-04-26T07:17:11;100794.38;;;9.00;100.00
24486;BME280;13449;49.374;8.584;2023-04-26T07:19:37;100802.63;;;9.64;100.00
24486;BME280;13449;49.374;8.584;2023-04-26T07:22:03;100795.56;;;9.56;100.00
24486;BME280;13449;49.374;8.584;2023-04-26T07:24:30;100796.72;;;9.70;100.00
24486;BME280;13449;49.374;8.584;2023-04-26T07:26:57;100801.38;;;10.01;100.00
24486;BME280;13449;49.374;8.584;2023-04-26T07:29:23;100804.31;;;9.81;100.00
24486;BME280;13449;49.374;8.584;2023-04-26T07:31:50;100791.66;;;10.59;100.00
24486;BME280;13449;49.374;8.584;2023-04-26T07:34:16;100795.56;;;11.81;100.00
24486;BME280;13449;49.374;8.584;2023-04-26T07:36:43;100785.94;;;12.11;100.00
24486;BME280;13449;49.374;8.584;2023-04-26T07:39:13;100788.72;;;11.95;100.00
24486;BME280;13449;49.374;8.584;2023-04-26T07:41:41;100787.56;;;11.97;100.00
24486;BME280;13449;49.374;8.584;2023-04-26T07:44:09;100791.78;;;11.52;100.00
24486;BME280;13449;49.374;8.584;2023-04-26T07:46:38;100793.41;;;12.07;100.00
24486;BME280;13449;49.374;8.584;2023-04-26T07:49:06;100788.03;;;12.53;100.00
24486;BME280;13449;49.374;8.584;2023-04-26T07:51:34;100796.88;;;12.46;99.54
24486;BME280;13449;49.374;8.584;2023-04-26T07:54:01;100795.63;;;12.71;100.00
24486;BME280;13449;49.374;8.584;2023-04-26T07:56:29;100803.69;;;12.40;94.64
24486;BME280;13449;49.374;8.584;2023-04-26T07:58:56;100800.56;;;11.99;90.29
24486;BME280;13449;49.374;8.584;2023-04-26T08:01:22;100791.63;;;12.75;87.39
24486;BME280;13449;49.374;8.584;2023-04-26T08:03:49;100800.44;;;12.15;80.20
24486;BME280;13449;49.374;8.584;2023-04-26T08:06:16;100794.41;;;13.18;91.44
24486;BME280;13449;49.374;8.584;2023-04-26T08:08:43;100797.16;;;13.40;99.54
24486;BME280;13449;49.374;8.584;2023-04-26T08:11:16;100795.72;;;12.93;72.54
24486;BME280;13449;49.374;8.584;2023-04-26T08:13:43;100793.72;;;12.65;74.81
24486;BME280;13449;49.374;8.584;2023-04-26T08:16:09;100795.00;;;14.08;77.93
24486;BME280;13449;49.374;8.584;2023-04-26T08:18:36;100797.44;;;13.66;77.47
24486;BME280;13449;49.374;8.584;2023-04-26T08:21:05;100790.97;;;14.40;88.02
24486;BME280;13449;49.374;8.584;2023-04-26T08:23:34;100799.06;;;14.32;69.55
24486;BME280;13449;49.374;8.584;2023-04-26T08:26:01;100794.28;;;13.77;62.28
24486;BME280;13449;49.374;8.584;2023-04-26T08:28:28;100797.84;;;13.48;62.66
24486;BME280;13449;49.374;8.584;2023-04-26T08:30:55;100801.09;;;12.17;60.69
24486;BME280;13449;49.374;8.584;2023-04-26T08:33:24;100795.44;;;13.02;61.50
24486;BME280;13449;49.374;8.584;2023-04-26T08:35:51;100789.00;;;13.77;58.17
24486;BME280;13449;49.374;8.584;2023-04-26T08:38:18;100789.88;;;13.27;55.51
24486;BME280;13449;49.374;8.584;2023-04-26T08:40:45;100783.38;;;13.15;57.28
24486;BME280;13449;49.374;8.584;2023-04-26T08:43:13;100784.22;;;13.30;54.43
24486;BME280;13449;49.374;8.584;2023-04-26T08:45:41;100782.94;;;12.52;52.46
24486;BME280;13449;49.374;8.584;2023-04-26T08:48:10;100782.38;;;13.30;57.64
24486;BME280;13449;49.374;8.584;2023-04-26T08:50:43;100782.31;;;13.60;61.61
24486;BME280;13449;49.374;8.584;2023-04-26T08:53:14;100773.66;;;14.16;60.93
24486;BME280;13449;49.374;8.584;2023-04-26T08:55:49;100770.16;;;15.06;63.33
24486;BME280;13449;49.374;8.584;2023-04-26T08:58:17;100769.66;;;15.37;56.90
24486;BME280;13449;49.374;8.584;2023-04-26T09:00:44;100768.81;;;13.76;57.44
24486;BME280;13449;49.374;8.584;2023-04-26T09:03:16;100768.94;;;15.02;56.91
24486;BME280;13449;49.374;8.584;2023-04-26T09:05:46;100762.13;;;15.48;53.63
24486;BME280;13449;49.374;8.584;2023-04-26T09:08:15;100765.28;;;15.16;55.68
24486;BME280;13449;49.374;8.584;2023-04-26T09:10:43;100761.66;;;15.24;50.79
24486;BME280;13449;49.374;8.584;2023-04-26T09:13:12;100763.66;;;16.23;51.72
24486;BME280;13449;49.374;8.584;2023-04-26T09:15:39;100760.34;;;15.00;50.25
24486;BME280;13449;49.374;8.584;2023-04-26T09:18:20;100762.13;;;14.02;49.63
24486;BME280;13449;49.374;8.584;2023-04-26T09:21:02;100759.81;;;13.49;50.74
24486;BME280;13449;49.374;8.584;2023-04-26T09:23:29;100761.28;;;13.37;50.92
24486;BME280;13449;49.374;8.584;2023-04-26T09:25:56;100767.88;;;13.63;55.33
24486;BME280;13449;49.374;8.584;2023-04-26T09:28:22;100761.63;;;12.83;50.65
24486;BME280;13449;49.374;8.584;2023-04-26T09:30:49;100759.41;;;12.86;55.58
24486;BME280;13449;49.374;8.584;2023-04-26T09:33:16;100758.41;;;13.17;51.06
24486;BME280;13449;49.374;8.584;2023-04-26T09:35:43;100759.59;;;13.00;52.09
24486;BME280;13449;49.374;8.584;2023-04-26T09:38:11;100764.81;;;12.78;53.39
24486;BME280;13449;49.374;8.584;2023-04-26T09:40:44;100758.25;;;12.45;52.38
24486;BME280;13449;49.374;8.584;2023-04-26T09:43:18;100759.25;;;12.58;53.71
24486;BME280;13449;49.374;8.584;2023-04-26T09:45:56;100752.19;;;13.25;55.62
24486;BME280;13449;49.374;8.584;2023-04-26T09:48:25;100760.56;;;13.65;60.39
24486;BME280;13449;49.374;8.584;2023-04-26T09:50:55;100770.78;;;13.89;49.45
24486;BME280;13449;49.374;8.584;2023-04-26T09:56:17;100767.75;;;14.14;45.52
24486;BME280;13449;49.374;8.584;2023-04-26T09:58:58;100762.97;;;13.60;44.01
24486;BME280;13449;49.374;8.584;2023-04-26T10:01:27;100764.06;;;14.15;47.22
24486;BME280;13449;49.374;8.584;2023-04-26T10:04:01;100758.31;;;14.61;52.79
24486;BME280;13449;49.374;8.584;2023-04-26T10:06:31;100757.38;;;14.47;52.31
24486;BME280;13449;49.374;8.584;2023-04-26T10:09:00;100754.13;;;14.80;48.06
24486;BME280;13449;49.374;8.584;2023-04-26T10:11:27;100754.78;;;13.76;49.48
24486;BME280;13449;49.374;8.584;2023-04-26T10:13:56;100756.94;;;13.15;51.23
24486;BME280;13449;49.374;8.584;2023-04-26T10:16:23;100750.50;;;12.73;47.32
24486;BME280;13449;49.374;8.584;2023-04-26T10:18:49;100744.69;;;12.77;49.38
24486;BME280;13449;49.374;8.584;2023-04-26T10:21:27;100743.22;;;13.41;53.68
24486;BME280;13449;49.374;8.584;2023-04-26T10:23:58;100734.44;;;12.89;50.15
24486;BME280;13449;49.374;8.584;2023-04-26T10:26:48;100741.03;;;12.78;45.86
24486;BME280;13449;49.374;8.584;2023-04-26T10:29:15;100741.34;;;13.05;48.22
24486;BME280;13449;49.374;8.584;2023-04-26T10:34:34;100747.63;;;13.19;50.90
24486;BME280;13449;49.374;8.584;2023-04-26T10:37:09;100745.63;;;13.21;48.19
24486;BME280;13449;49.374;8.584;2023-04-26T10:39:37;100737.16;;;13.10;43.88
24486;BME280;13449;49.374;8.584;2023-04-26T10:42:27;100749.47;;;13.54;48.96
24486;BME280;13449;49.374;8.584;2023-04-26T10:44:56;100745.88;;;12.75;43.61
24486;BME280;13449;49.374;8.584;2023-04-26T10:47:34;100741.25;;;13.28;48.46
24486;BME280;13449;49.374;8.584;2023-04-26T10:50:07;100737.34;;;13.45;48.43
24486;BME280;13449;49.374;8.584;2023-04-26T10:52:36;100736.97;;;13.27;45.31
24486;BME280;13449;49.374;8.584;2023-04-26T10:55:05;100735.19;;;13.19;47.58
24486;BME280;13449;49.374;8.584;2023-04-26T10:57:51;100731.31;;;13.51;47.91
24486;BME280;13449;49.374;8.584;2023-04-26T11:00:26;100725.63;;;13.54;49.69
24486;BME280;13449;49.374;8.584;2023-04-26T11:03:01;100719.91;;;13.29;44.48
24486;BME280;13449;49.374;8.584;2023-04-26T11:06:04;100715.44;;;13.51;43.48
24486;BME280;13449;49.374;8.584;2023-04-26T11:08:33;100702.63;;;13.76;41.07
24486;BME280;13449;49.374;8.584;2023-04-26T11:13:32;100692.69;;;13.57;40.79
24486;BME280;13449;49.374;8.584;2023-04-26T11:16:00;100695.28;;;14.00;40.71
24486;BME280;13449;49.374;8.584;2023-04-26T11:18:31;100698.06;;;14.89;44.07
24486;BME280;13449;49.374;8.584;2023-04-26T11:20:58;100684.63;;;14.21;45.67
24486;BME280;13449;49.374;8.584;2023-04-26T11:23:28;100692.44;;;14.01;41.68
24486;BME280;13449;49.374;8.584;2023-04-26T11:25:59;100688.47;;;13.91;39.29
24486;BME280;13449;49.374;8.584;2023-04-26T11:28:32;100681.56;;;14.18;42.31
24486;BME280;13449;49.374;8.584;2023-04-26T11:31:03;100676.72;;;14.56;42.73
24486;BME280;13449;49.374;8.584;2023-04-26T11:33:33;100671.50;;;14.76;41.26
24486;BME280;13449;49.374;8.584;2023-04-26T11:36:02;100665.06;;;14.51;41.36
24486;BME280;13449;49.374;8.584;2023-04-26T11:38:29;100666.91;;;14.22;39.25
24486;BME280;13449;49.374;8.584;2023-04-26T11:40:57;100673.13;;;13.58;41.43
24486;BME280;13449;49.374;8.584;2023-04-26T11:43:36;100671.00;;;14.24;40.34
24486;BME280;13449;49.374;8.584;2023-04-26T11:46:04;100667.53;;;13.96;39.58
24486;BME280;13449;49.374;8.584;2023-04-26T11:48:34;100671.84;;;14.60;41.50
24486;BME280;13449;49.374;8.584;2023-04-26T11:51:05;100654.16;;;14.39;42.21
24486;BME280;13449;49.374;8.584;2023-04-26T11:56:17;100652.25;;;13.91;41.70
24486;BME280;13449;49.374;8.584;2023-04-26T11:58:53;100650.72;;;14.10;41.58
24486;BME280;13449;49.374;8.584;2023-04-26T12:01:24;100654.66;;;14.56;47.44
24486;BME280;13449;49.374;8.584;2023-04-26T12:03:56;100662.41;;;14.22;39.51
24486;BME280;13449;49.374;8.584;2023-04-26T12:06:30;100658.88;;;14.43;41.77
24486;BME280;13449;49.374;8.584;2023-04-26T12:09:00;100651.41;;;14.54;41.58
24486;BME280;13449;49.374;8.584;2023-04-26T12:11:27;100656.50;;;15.16;42.91
24486;BME280;13449;49.374;8.584;2023-04-26T12:13:57;100645.16;;;14.75;45.27
24486;BME280;13449;49.374;8.584;2023-04-26T12:16:24;100658.50;;;14.12;41.06
24486;BME280;13449;49.374;8.584;2023-04-26T12:18:55;100661.13;;;14.46;45.34
24486;BME280;13449;49.374;8.584;2023-04-26T12:21:29;100659.47;;;14.80;41.38
24486;BME280;13449;49.374;8.584;2023-04-26T12:23:56;100646.84;;;14.89;40.66
24486;BME280;13449;49.374;8.584;2023-04-26T12:26:40;100643.19;;;14.90;41.27
24486;BME280;13449;49.374;8.584;2023-04-26T12:29:07;100638.38;;;14.65;41.79
24486;BME280;13449;49.374;8.584;2023-04-26T12:31:34;100646.94;;;14.61;39.66
24486;BME280;13449;49.374;8.584;2023-04-26T12:34:00;100657.34;;;14.62;42.67
24486;BME280;13449;49.374;8.584;2023-04-26T12:36:29;100651.69;;;14.02;39.43
24486;BME280;13449;49.374;8.584;2023-04-26T12:38:56;100646.38;;;14.31;46.00
24486;BME280;13449;49.374;8.584;2023-04-26T12:41:23;100649.69;;;14.46;41.74
24486;BME280;13449;49.374;8.584;2023-04-26T12:43:52;100641.75;;;14.05;39.50
24486;BME280;13449;49.374;8.584;2023-04-26T12:46:18;100646.06;;;14.12;40.19
24486;BME280;13449;49.374;8.584;2023-04-26T12:48:45;100645.00;;;14.07;41.18
24486;BME280;13449;49.374;8.584;2023-04-26T12:51:11;100642.47;;;13.92;40.42
24486;BME280;13449;49.374;8.584;2023-04-26T12:53:40;100649.22;;;14.64;43.28
24486;BME280;13449;49.374;8.584;2023-04-26T12:56:07;100644.81;;;14.98;40.32
24486;BME280;13449;49.374;8.584;2023-04-26T12:58:33;100647.47;;;14.98;39.92
24486;BME280;13449;49.374;8.584;2023-04-26T13:01:00;100649.22;;;14.70;41.20
24486;BME280;13449;49.374;8.584;2023-04-26T13:03:26;100647.22;;;14.38;39.44
24486;BME280;13449;49.374;8.584;2023-04-26T13:05:54;100650.03;;;14.71;41.40
24486;BME280;13449;49.374;8.584;2023-04-26T13:08:21;100642.06;;;14.30;43.56